createdAt,value
2023-04-16T00:03:06.501Z,27.49
2023-04-16T00:08:08.567Z,27.23
2023-04-16T00:13:10.584Z,27.55
2023-04-16T00:18:12.550Z,27.71
2023-04-16T00:23:14.466Z,27.52
2023-04-16T00:28:16.364Z,27.80
2023-04-16T00:33:18.242Z,27.93
2023-04-16T00:38:20.128Z,28.24
2023-04-16T00:43:28.212Z,28.29
2023-04-16T00:48:30.159Z,28.54
2023-04-16T00:53:32.035Z,28.70
2023-04-16T00:58:34.741Z,28.57
2023-04-16T01:03:40.467Z,29.11
2023-04-16T01:08:42.341Z,28.92
2023-04-16T01:13:44.307Z,29.15
2023-04-16T01:18:46.239Z,29.29
2023-04-16T01:23:48.151Z,29.36
2023-04-16T01:28:50.103Z,29.34
2023-04-16T01:33:52.048Z,29.80
2023-04-16T01:38:53.944Z,29.51
2023-04-16T01:43:55.837Z,29.71
2023-04-16T01:49:01.189Z,29.74
2023-04-16T01:54:03.198Z,29.72
2023-04-16T01:59:05.113Z,29.98
2023-04-16T02:04:07.073Z,30.24
2023-04-16T02:09:09.112Z,30.39
2023-04-16T02:14:11.103Z,30.60
2023-04-16T02:19:13.003Z,30.57
2023-04-16T02:24:15.130Z,30.80
2023-04-16T02:29:17.065Z,30.89
2023-04-16T02:34:18.937Z,30.80
2023-04-16T02:39:20.843Z,31.02
2023-04-16T02:44:22.723Z,31.30
2023-04-16T02:49:24.552Z,31.46
2023-04-16T02:54:26.450Z,31.37
2023-04-16T02:59:28.400Z,31.16
2023-04-16T03:04:30.356Z,31.61
2023-04-16T03:09:32.389Z,31.46
2023-04-16T03:14:34.431Z,31.26
2023-04-16T03:19:36.295Z,31.45
2023-04-16T03:24:38.278Z,30.90
2023-04-16T03:29:40.174Z,31.10
2023-04-16T03:34:42.193Z,30.81
2023-04-16T03:39:44.204Z,30.43
2023-04-16T03:44:46.036Z,30.59
2023-04-16T03:49:47.995Z,29.30
2023-04-16T03:54:50.043Z,27.47
2023-04-16T03:59:52.060Z,26.40
2023-04-16T04:04:54.062Z,24.11
2023-04-16T04:09:56.172Z,22.75
2023-04-16T04:14:58.099Z,23.57
2023-04-16T04:20:01.636Z,24.88
2023-04-16T04:25:07.050Z,25.25
2023-04-16T04:30:09.666Z,25.57
2023-04-16T04:35:11.488Z,25.93
2023-04-16T04:40:13.370Z,25.82
2023-04-16T04:45:16.625Z,25.81
2023-04-16T04:50:18.754Z,26.15
2023-04-16T04:55:20.744Z,25.68
2023-04-16T05:00:22.590Z,25.90
2023-04-16T05:05:24.542Z,25.95
2023-04-16T05:10:27.078Z,25.59
2023-04-16T05:15:28.938Z,25.28
2023-04-16T05:20:30.976Z,24.96
2023-04-16T05:25:32.804Z,24.40
2023-04-16T05:30:34.677Z,23.18
2023-04-16T05:35:36.580Z,21.40
2023-04-16T05:40:38.547Z,19.51
2023-04-16T05:45:40.467Z,18.93
2023-04-16T05:50:42.629Z,17.80
2023-04-16T05:55:44.644Z,16.11
2023-04-16T06:00:46.602Z,16.23
2023-04-16T06:05:48.558Z,14.90
2023-04-16T06:10:50.474Z,16.23
2023-04-16T06:15:52.344Z,14.24
2023-04-16T06:20:54.312Z,13.49
2023-04-16T06:25:56.116Z,12.15
2023-04-16T06:30:57.980Z,12.69
2023-04-16T06:35:59.864Z,13.68
2023-04-16T06:41:01.790Z,11.76
2023-04-16T06:46:03.519Z,10.82
2023-04-16T06:51:05.431Z,9.42
2023-04-16T06:56:07.880Z,9.93
2023-04-16T07:01:09.929Z,9.56
2023-04-16T07:06:11.980Z,10.69
2023-04-16T07:11:14.294Z,11.56
2023-04-16T07:16:16.370Z,11.76
2023-04-16T07:21:18.339Z,11.03
2023-04-16T07:26:20.340Z,9.31
2023-04-16T07:31:22.313Z,9.68
2023-04-16T07:36:24.335Z,10.61
2023-04-16T07:41:26.055Z,11.34
2023-04-16T07:46:36.068Z,12.53
2023-04-16T07:51:45.361Z,12.58
2023-04-16T07:56:47.334Z,12.99
2023-04-16T08:01:49.680Z,13.60
2023-04-16T08:06:51.629Z,14.29
2023-04-16T08:11:53.444Z,13.97
2023-04-16T08:16:55.378Z,14.38
2023-04-16T08:21:57.392Z,14.50
2023-04-16T08:27:08.145Z,14.75
2023-04-16T08:32:19.506Z,14.57
2023-04-16T08:37:21.479Z,14.80
2023-04-16T08:42:53.787Z,14.68
2023-04-16T08:47:55.664Z,15.10
2023-04-16T08:52:59.352Z,15.02
2023-04-16T08:58:01.574Z,15.38
2023-04-16T09:03:03.746Z,15.77
2023-04-16T09:08:06.402Z,15.79
2023-04-16T09:13:08.044Z,15.55
2023-04-16T09:18:10.481Z,15.41
2023-04-16T09:23:12.177Z,15.75
2023-04-16T09:28:27.153Z,15.76
2023-04-16T09:33:29.060Z,16.04
2023-04-16T09:38:46.464Z,16.39
2023-04-16T09:43:59.293Z,16.11
2023-04-16T09:49:13.391Z,15.79
2023-04-16T09:54:15.298Z,15.45
2023-04-16T09:59:21.169Z,15.50
2023-04-16T10:04:23.108Z,15.58
2023-04-16T10:09:24.997Z,15.54
2023-04-16T10:14:26.995Z,15.32
2023-04-16T10:19:28.952Z,15.40
2023-04-16T10:24:31.533Z,15.53
2023-04-16T10:29:33.263Z,15.34
2023-04-16T10:34:35.188Z,15.54
2023-04-16T10:39:37.103Z,15.42
2023-04-16T10:44:45.192Z,15.55
2023-04-16T10:49:48.030Z,15.62
2023-04-16T10:54:49.937Z,15.97
2023-04-16T10:59:51.936Z,16.16
2023-04-16T11:04:54.650Z,16.13
2023-04-16T11:09:57.882Z,15.95
2023-04-16T11:15:00.497Z,16.22
2023-04-16T11:20:02.568Z,16.22
2023-04-16T11:25:05.880Z,16.18
2023-04-16T11:30:09.429Z,16.50
2023-04-16T11:35:14.879Z,16.82
2023-04-16T11:40:16.856Z,16.53
2023-04-16T11:45:18.776Z,16.85
2023-04-16T11:50:29.853Z,16.89
2023-04-16T11:55:31.797Z,17.07
2023-04-16T12:00:35.497Z,16.93
2023-04-16T12:05:40.493Z,16.80
2023-04-16T12:10:55.418Z,16.69
2023-04-16T12:15:57.399Z,16.73
2023-04-16T12:20:59.309Z,16.81
2023-04-16T12:26:07.528Z,16.80
2023-04-16T12:31:09.525Z,17.06
2023-04-16T12:36:20.437Z,16.97
2023-04-16T12:41:22.403Z,17.17
2023-04-16T12:46:24.409Z,16.92
2023-04-16T12:51:26.517Z,17.10
2023-04-16T12:56:28.454Z,17.61
2023-04-16T13:01:30.448Z,17.51
2023-04-16T13:06:32.448Z,17.43
2023-04-16T13:11:34.297Z,17.25
2023-04-16T13:16:36.439Z,17.21
2023-04-16T13:21:38.343Z,17.19
2023-04-16T13:26:40.288Z,17.12
2023-04-16T13:31:42.329Z,17.24
2023-04-16T13:36:44.392Z,17.46
2023-04-16T13:41:46.370Z,17.39
2023-04-16T13:46:48.357Z,17.58
2023-04-16T13:51:50.264Z,17.45
2023-04-16T13:56:52.139Z,17.56
2023-04-16T14:01:54.221Z,17.20
2023-04-16T14:06:56.202Z,17.54
2023-04-16T14:11:58.122Z,17.62
2023-04-16T14:17:00.112Z,17.66
2023-04-16T14:22:01.996Z,17.75
2023-04-16T14:27:04.061Z,17.69
2023-04-16T14:32:06.322Z,17.45
2023-04-16T14:37:08.376Z,17.46
2023-04-16T14:42:10.315Z,17.74
2023-04-16T14:47:12.301Z,17.97
2023-04-16T14:52:14.251Z,18.00
2023-04-16T14:57:16.171Z,18.04
2023-04-16T15:02:18.195Z,18.00
2023-04-16T15:07:20.196Z,18.01
2023-04-16T15:12:22.315Z,18.09
2023-04-16T15:17:24.254Z,18.33
2023-04-16T15:22:26.234Z,18.42
2023-04-16T15:27:28.198Z,18.58
2023-04-16T15:32:30.918Z,18.56
2023-04-16T15:37:32.794Z,18.62
2023-04-16T15:42:34.740Z,18.85
2023-04-16T15:47:37.579Z,18.93
2023-04-16T15:52:40.988Z,19.03
2023-04-16T15:57:42.990Z,19.10
2023-04-16T16:02:45.662Z,19.32
2023-04-16T16:07:48.072Z,19.14
2023-04-16T16:12:49.934Z,19.39
2023-04-16T16:17:51.876Z,19.48
2023-04-16T16:22:53.946Z,19.49
2023-04-16T16:27:55.893Z,19.59
2023-04-16T16:32:57.928Z,19.47
2023-04-16T16:37:59.984Z,19.48
2023-04-16T16:43:01.936Z,19.71
2023-04-16T16:48:04.134Z,19.74
2023-04-16T16:53:05.990Z,19.91
2023-04-16T16:58:07.815Z,19.92
2023-04-16T17:03:10.005Z,19.85
2023-04-16T17:08:12.154Z,20.00
2023-04-16T17:13:14.048Z,19.89
2023-04-16T17:18:16.013Z,19.90
2023-04-16T17:23:17.932Z,20.11
2023-04-16T17:28:20.593Z,20.06
2023-04-16T17:33:22.808Z,19.95
2023-04-16T17:38:24.698Z,20.10
2023-04-16T17:43:28.092Z,19.93
2023-04-16T17:48:30.087Z,20.13
2023-04-16T17:53:31.992Z,20.10
2023-04-16T17:58:33.826Z,20.22
2023-04-16T18:03:36.936Z,20.80
2023-04-16T18:08:39.069Z,20.43
2023-04-16T18:13:41.068Z,20.40
2023-04-16T18:18:43.916Z,20.56
2023-04-16T18:23:45.887Z,20.49
2023-04-16T18:28:47.982Z,20.55
2023-04-16T18:33:57.549Z,20.61
2023-04-16T18:39:02.416Z,20.62
2023-04-16T18:44:04.559Z,20.68
2023-04-16T18:49:06.524Z,20.81
2023-04-16T18:54:08.390Z,21.30
2023-04-16T18:59:10.658Z,21.20
2023-04-16T19:04:12.854Z,21.26
2023-04-16T19:09:15.264Z,21.38
2023-04-16T19:14:17.315Z,21.29
2023-04-16T19:19:19.235Z,21.38
2023-04-16T19:24:21.070Z,21.46
2023-04-16T19:29:23.109Z,21.55
2023-04-16T19:34:25.089Z,21.76
2023-04-16T19:39:27.139Z,21.74
2023-04-16T19:44:29.186Z,21.63
2023-04-16T19:49:33.100Z,21.81
2023-04-16T19:54:36.144Z,22.05
2023-04-16T19:59:38.351Z,21.95
2023-04-16T20:04:40.315Z,22.04
2023-04-16T20:09:42.307Z,22.23
2023-04-16T20:14:44.167Z,22.24
2023-04-16T20:19:46.100Z,22.43
2023-04-16T20:24:48.326Z,22.62
2023-04-16T20:29:50.351Z,22.57
2023-04-16T20:34:52.360Z,22.58
2023-04-16T20:39:54.326Z,22.49
2023-04-16T20:44:56.636Z,22.71
2023-04-16T20:49:58.768Z,22.92
2023-04-16T20:55:00.623Z,23.00
2023-04-16T21:00:02.717Z,22.93
2023-04-16T21:05:07.002Z,22.98
2023-04-16T21:10:09.688Z,22.91
2023-04-16T21:15:12.020Z,23.07
2023-04-16T21:20:14.072Z,23.05
2023-04-16T21:25:16.130Z,22.98
2023-04-16T21:30:18.277Z,23.20
2023-04-16T21:35:20.250Z,23.24
2023-04-16T21:40:22.252Z,23.03
2023-04-16T21:45:24.177Z,23.24
2023-04-16T21:50:26.105Z,23.18
2023-04-16T21:55:28.053Z,23.32
2023-04-16T22:00:30.060Z,23.18
2023-04-16T22:05:32.047Z,23.18
2023-04-16T22:10:33.977Z,23.27
2023-04-16T22:15:35.913Z,23.17
2023-04-16T22:20:37.779Z,23.19
2023-04-16T22:25:39.940Z,23.35
2023-04-16T22:30:41.866Z,23.29
2023-04-16T22:35:43.769Z,23.51
2023-04-16T22:40:47.682Z,23.47
2023-04-16T22:45:49.665Z,23.47
2023-04-16T22:50:51.532Z,23.61
2023-04-16T22:55:53.528Z,23.79
2023-04-16T23:00:55.445Z,23.60
2023-04-16T23:05:57.510Z,23.73
2023-04-16T23:10:59.479Z,23.72
2023-04-16T23:16:01.486Z,23.93
2023-04-16T23:21:03.464Z,23.76
2023-04-16T23:26:05.374Z,24.21
2023-04-16T23:31:07.622Z,24.24
2023-04-16T23:36:10.115Z,24.81
2023-04-16T23:41:12.068Z,24.55
2023-04-16T23:46:14.044Z,24.54
2023-04-16T23:51:16.027Z,24.75
2023-04-16T23:56:17.887Z,24.75
